Puyallup, WA

5:23 PM PDT on October 31, 2014 (GMT -0700)
River Improvement Lab | Change Station
CLOSE
Current Station
Personal Weather Station
Location: Puyallup, WA
Elevation: 0 ft
Nearby Weather Stations

Elev 0 ft 47.20 °N, 122.30 °W | Updated 57 minutes ago

Overcast
Overcast
55.5 °F
Feels Like 55.5 °F
N
2.0
Wind Variable Wind from SSW
Gusts 7.2 mph

Today
High -- | Low -- °F
--% Chance of Precip.
Yesterday
High -- | Low -- °F
Precip. -- in
7:51 AM 5:53 PM
First Quarter, 60% visible
Pressure 29.86 in
Visibility 10.0 miles
Clouds Overcast 5000 ft
Dew Point 51 °F
Humidity 83%
Rainfall -999.00 in
Snow Depth Not available.
UV 0 out of 12
Pollen .30 out of 12
Air Quality Not available.
Flu Activity Not available.
METAR KTCM 312358Z AUTO 19003KT 10SM OVC050 13/10 A2984 RMK AO2 SLP109 60000 T01300099 10132 20104 53004 $

More Conditions Fewer Conditions

Pressure 29.86 in
Visibility 10.0 miles
Clouds Overcast 5000 ft
Dew Point 51 °F
Humidity 83%
Rainfall -999.00 in
Snow Depth Not available.
UV 0 out of 12
Pollen .30 out of 12
Air Quality Not available.
Flu Activity Not available.
METAR KTCM 312358Z AUTO 19003KT 10SM OVC050 13/10 A2984 RMK AO2 SLP109 60000 T01300099 10132 20104 53004 $

More Conditions Fewer Conditions

10-Day Weather Forecast

Almanac

Astronomy

Oct. 31, 2014 Rise Set
Actual Time
Civil Twilight
Nautical Twilight
Astronomical Twilight
Moon
Length of Visible Light
Length of Day
Tomorrow will be .
, % of the Moon is Illuminated

Today's Extremes

State Highs State Lows

Community

WunderPhotos

Upload Photos

1,766,792 photos uploaded!

WunderBlogs® & News

Nearby

Air Quality

  Air Quality AQ Index Pollutant
Not available.

Snow Depth

Station Depth Elevation

Earthquake Activity

City Distance Mag. Time & Date
Minimum magnitude displayed is 2.5.

Coastal Water Temperatures

Place Temperature

Nearby Weather Stations